Christian Bradley

Olheiro - Colorado Rapids
3 Fev 2028
Quinta-feira
Processo

Personalidade

Adaptabilidade (12) Ambição (6) Controvérsia (5) Lealdade (17) Pressão (4) Profissionalismo (9) Espírito Esportivo (17) Temperamento (15)

Perfil

Estilo de Treinamento Democrático
Licença Nacional A
Determinação 4
Gestão de Pessoas 11
Motivação 4
Disciplina 7
Satisfação no Trabalho
100%
Fadiga
0%
Função Olheiro
Salário 47.1K p/s
Contrato 14.03.2029

Desempenho

Comportamento Bom
Eficácia do Treinamento
36%
Desenvolvimento do Jogador
60%
Prevenção de Lesões
35%
Implementação Tática
30%

Eventos Recentes

Participando de desenvolvimento profissional 14d atrás
Participou de uma reunião de recrutamento 14d atrás
Participando de desenvolvimento profissional 14d atrás
Participando de desenvolvimento profissional 14d atrás
Participando de desenvolvimento profissional 14d atrás
Participou de uma reunião de recrutamento 21d atrás
Participando de desenvolvimento profissional 21d atrás
Participando de desenvolvimento profissional 21d atrás

Monitorando agora

61
Jogador Clube Status Habilidade Confiança Observado Última observação Último voto
Silvan Hefti DC United Ativo 110 / 125 55% 1 05.04.2027 -
Matti Peltola DC United Ativo 109 / 125 55% 1 29.03.2027 -
Robert Mizo Ashanti Gold Ativo 105 / 105 40% 3 13.02.2027 -
Dávid Strelec Middlesbrough Ativo 125 / 126 40% 1 13.02.2027 -
Bojan Radulović Huddersfield Town Ativo 127 / 105 40% 5 12.02.2027 -
Tyrese Campbell Sheffield United Ativo 136 / 113 40% 1 12.02.2027 -
Etiosa Ighodaro Kaizer Chiefs Ativo 95 / 111 40% 2 11.02.2027 -
Yousef Salech Cardiff City Ativo 113 / 136 40% 1 06.02.2027 -
Evidence Makgopa Orlando Pirates Ativo 120 / 108 40% 1 30.01.2027 -
Morgan Whittaker Middlesbrough Ativo 132 / 139 40% 1 30.01.2027 -
Kenan Dervišagić Floriana Ativo 90 / 100 40% 3 29.01.2027 -
Abu Kamara Portsmouth Ativo 103 / 118 40% 1 29.01.2027 -
Mathias Jørgensen Blackburn Rovers Ativo 129 / 129 40% 1 24.01.2027 -
Diamanka Senghor Mosta Ativo 99 / 95 40% 2 17.01.2027 -
Vladimir Khubulov Dinamo Makhachkala Ativo 102 / 102 40% 1 17.01.2027 -
Yaroslav Gladyshev Dinamo Moscow Ativo 133 / 125 40% 3 14.01.2027 -
Vyacheslav Grulev Nizhniy Novgorod Ativo 115 / 120 40% 1 07.01.2027 -
Themba Ngcobo SuperSport United Ativo 133 / 122 40% 2 05.01.2027 -
Leandro Godoy CSKA Sofia Ativo 115 / 124 40% 2 02.01.2027 -
Juan Giménez Celta Ativo 111 / 126 40% 1 31.12.2026 -
Ammar Ramadan DAC Dunajska Streda Ativo 121 / 115 40% 1 25.12.2026 -
Sibusiso Tshabalala Polokwane City Ativo 100 / 83 40% 1 25.12.2026 -
Pedro Cejas Zabbar St. Patrick Ativo 101 / 89 40% 3 20.12.2026 -
Yaw Mensah Hasaacas Ativo 70 / 82 40% 1 18.12.2026 -
Brayan León Mamelodi Sundowns Ativo 111 / 115 40% 3 16.12.2026 -
Luís Mota Zabbar St. Patrick Ativo 71 / 104 40% 1 14.12.2026 -
Samuel Anakwe Remo Stars Ativo 96 / 102 40% 2 10.12.2026 -
Kévin Denkey FC Cincinnati Ativo 127 / 135 40% 5 07.12.2026 -
Wessam Abou Ali Columbus Crew Ativo 135 / 127 40% 5 07.12.2026 -
Nicolás Cordero Aldosivi Ativo 109 / 105 40% 1 02.12.2026 -
Ruben van Bommel Ferencvaros Ativo 139 / 135 40% 1 26.11.2026 -
Alexis Cuello San Lorenzo Ativo 107 / 113 40% 1 23.11.2026 -
Kwame Opoku Asante Kotoko Ativo 111 / 91 40% 1 20.11.2026 -
Promise Omochere Bristol Rovers Ativo 102 / 99 40% 1 15.11.2026 -
Alassana Jatta Notts County Ativo 118 / 104 40% 3 12.11.2026 -
Nathan Ordaz Metalist Ativo 118 / 122 40% 1 12.11.2026 -
Tio Cipot NK Maribor Ativo 121 / 122 40% 1 11.11.2026 -
Lassina Traoré Shakhtar Ativo 118 / 127 40% 1 03.11.2026 -
Daniel Kelly Oxford United Ativo 96 / 121 40% 1 02.11.2026 -
Joseph Atule Barau Ativo 111 / 92 40% 1 27.10.2026 -
Dejan Joveljić Seattle Sounders Ativo 136 / 125 40% 1 27.10.2026 -
Auwalu Ali Malam Kano Pillars Ativo 94 / 83 40% 1 18.10.2026 -
Mandla Mahlangu Ajax Cape Town Ativo 103 / 98 40% 3 16.10.2026 -
Tadeo Allende Inter Miami CF Ativo 117 / 130 40% 2 14.10.2026 -
Simphiwe Selepe Orlando Pirates Ativo 125 / 102 40% 1 14.10.2026 -
Chisom Orji Warri Wolves Ativo 104 / 98 40% 1 14.10.2026 -
Josh Sargent Toronto FC Ativo 118 / 123 40% 2 13.10.2026 -
Sam Nombe Milton Keynes Dons Ativo 97 / 114 40% 1 13.10.2026 -
Lewis McCann Fleetwood Town Ativo 84 / 89 40% 1 10.10.2026 -
Duncan McGuire Houston Dynamo Ativo 135 / 125 40% 1 08.10.2026 -
Ismail Sarki Niger Tornadoes Ativo 76 / 86 40% 1 07.10.2026 -
Lee Bonis Chesterfield Ativo 84 / 101 40% 1 06.10.2026 -
Sunday Megwo Abia Warriors Ativo 90 / 93 40% 1 05.10.2026 -
Ayoub Jabbari FC Cincinnati Ativo 106 / 102 40% 1 30.09.2026 -
Kyle Joseph Middlesbrough Ativo 122 / 103 40% 1 26.09.2026 -
Timothy Zechariah Rivers United Ativo 98 / 91 40% 1 23.09.2026 -
Theo Corbeanu Toronto FC Ativo 120 / 128 40% 1 20.09.2026 -
Brandon Vázquez Austin FC Ativo 125 / 127 40% 1 16.09.2026 -
Ezekiel Edidiong Enyimba Ativo 72 / 82 40% 1 16.09.2026 -
Jaze Kabia Grimsby Town Ativo 84 / 100 40% 1 08.09.2026 -
Mohamed Camara Asante Kotoko Ativo 91 / 92 40% 1 01.08.2026 -